Time;durP1;ratioP1;P1;durP2;ratioP2;P2;SDS_P1;SDS_P2;PMS_P1;PMS_P2;Temp;Humidity;BMP_temperature;BMP_pressure;BME280_temperature;BME280_humidity;BME280_pressure;Samples;Min_cycle;Max_cycle;Signal;HPM_P1;HPM_P2
2023/02/08 00:01:51;;;;;;;6.88;5.10;;;-3.70;99.90;;;;;;4948394;28;20634;-33
2023/02/08 00:04:17;;;;;;;6.28;4.32;;;-3.70;99.90;;;;;;4948266;28;20034;-36
2023/02/08 00:06:43;;;;;;;6.22;5.43;;;-3.90;99.40;;;;;;4948445;28;20405;-32
2023/02/08 00:09:08;;;;;;;7.72;5.65;;;-4.30;99.90;;;;;;4965139;28;20039;-33
2023/02/08 00:11:34;;;;;;;8.00;5.55;;;-4.40;99.90;;;;;;4967837;28;20122;-32
2023/02/08 00:14:00;;;;;;;10.65;5.60;;;-4.50;99.90;;;;;;4965968;28;20023;-32
2023/02/08 00:16:25;;;;;;;8.85;4.68;;;-4.60;99.90;;;;;;4967976;28;20211;-36
2023/02/08 00:18:51;;;;;;;11.07;6.13;;;-4.50;99.90;;;;;;4969065;28;20479;-32
2023/02/08 00:21:17;;;;;;;8.73;6.22;;;-4.40;99.90;;;;;;4968253;28;20037;-33
2023/02/08 00:23:44;;;;;;;10.90;5.03;;;-4.30;99.90;;;;;;4960455;28;20031;-33
2023/02/08 00:26:09;;;;;;;6.97;4.93;;;-4.20;99.90;;;;;;4965151;28;20034;-35
2023/02/08 00:28:35;;;;;;;4.78;3.63;;;-4.10;99.90;;;;;;4963450;28;20056;-33
2023/02/08 00:31:01;;;;;;;8.95;6.03;;;-4.10;99.90;;;;;;4956381;28;21466;-33
2023/02/08 00:33:27;;;;;;;9.20;4.57;;;-4.00;99.90;;;;;;4943837;28;20043;-33
2023/02/08 00:36:04;;;;;;;9.90;6.32;;;-4.10;99.90;;;;;;4948229;28;20049;-36
2023/02/08 00:38:30;;;;;;;11.38;6.20;;;-4.50;99.90;;;;;;4958727;28;20085;-33
2023/02/08 00:40:56;;;;;;;6.10;4.70;;;-4.80;99.90;;;;;;4964654;28;20027;-32
2023/02/08 00:43:22;;;;;;;13.02;6.30;;;-4.80;99.90;;;;;;4968575;28;20035;-34
2023/02/08 00:45:55;;;;;;;7.75;5.85;;;-4.60;99.90;;;;;;4964258;28;20037;-32
2023/02/08 00:48:21;;;;;;;8.30;5.18;;;-4.50;99.90;;;;;;4967327;28;20373;-34
2023/02/08 00:51:15;;;;;;;9.73;6.25;;;-4.40;99.90;;;;;;4966705;28;20093;-32
2023/02/08 00:53:43;;;;;;;8.70;5.38;;;-4.40;99.90;;;;;;4972367;28;20042;-32
2023/02/08 00:56:14;;;;;;;11.48;6.60;;;-4.50;99.90;;;;;;4962374;28;20487;-34
2023/02/08 00:58:40;;;;;;;9.07;6.25;;;-4.50;99.90;;;;;;4970415;28;20034;-33
2023/02/08 01:01:06;;;;;;;14.00;7.20;;;-4.60;99.90;;;;;;4968729;28;20567;-32
2023/02/08 01:03:33;;;;;;;7.20;5.10;;;-4.60;99.90;;;;;;4951015;28;20556;-33
2023/02/08 01:06:01;;;;;;;8.90;6.63;;;-4.70;99.90;;;;;;4949606;28;20058;-33
2023/02/08 01:08:26;;;;;;;11.10;5.82;;;-4.70;99.90;;;;;;4949310;28;21429;-33
2023/02/08 01:10:52;;;;;;;11.93;5.60;;;-4.70;99.90;;;;;;4943858;28;20141;-37
2023/02/08 01:13:18;;;;;;;10.32;5.60;;;-4.80;99.90;;;;;;4944870;28;20127;-34
2023/02/08 01:15:43;;;;;;;11.10;6.35;;;-4.80;99.90;;;;;;4950002;28;21683;-36
2023/02/08 01:18:09;;;;;;;12.10;6.60;;;-4.80;99.90;;;;;;4944722;28;20022;-36
2023/02/08 01:20:36;;;;;;;15.00;6.50;;;-4.90;99.90;;;;;;4955403;28;20539;-33
2023/02/08 01:23:03;;;;;;;6.50;5.03;;;-4.80;99.90;;;;;;4963795;28;20480;-36
2023/02/08 01:25:28;;;;;;;13.32;6.20;;;-4.80;99.90;;;;;;4965260;28;20026;-33
2023/02/08 01:27:56;;;;;;;8.30;5.40;;;-4.90;99.90;;;;;;4965413;28;20022;-33
2023/02/08 01:30:22;;;;;;;9.80;6.03;;;-5.00;99.90;;;;;;4965332;28;20403;-32
2023/02/08 01:32:48;;;;;;;17.42;6.95;;;-5.10;99.90;;;;;;4964400;28;20496;-33
2023/02/08 01:35:14;;;;;;;15.13;7.72;;;-5.20;99.90;;;;;;4961394;28;20085;-32
2023/02/08 01:37:39;;;;;;;11.48;6.35;;;-5.10;99.90;;;;;;4965070;28;20496;-33
2023/02/08 01:40:06;;;;;;;13.40;7.75;;;-5.10;99.90;;;;;;4967966;28;20027;-33
2023/02/08 01:42:31;;;;;;;11.10;6.55;;;-5.00;99.90;;;;;;4968745;28;20816;-31
2023/02/08 01:45:16;;;;;;;9.57;6.03;;;-5.00;99.90;;;;;;4970422;28;20109;-32
2023/02/08 01:47:43;;;;;;;14.65;9.25;;;-5.00;99.90;;;;;;4967101;28;20031;-35
2023/02/08 01:50:10;;;;;;;15.20;8.00;;;-5.10;99.90;;;;;;4962499;28;20069;-33
2023/02/08 01:52:36;;;;;;;10.00;6.72;;;-5.10;99.90;;;;;;4968043;28;20118;-32
2023/02/08 01:55:10;;;;;;;9.82;6.25;;;-5.10;99.90;;;;;;4963352;28;20125;-34
2023/02/08 01:57:36;;;;;;;14.07;7.38;;;-5.10;99.90;;;;;;4970811;28;20449;-32
2023/02/08 02:00:15;;;;;;;15.80;7.25;;;-5.20;99.90;;;;;;4965081;28;20055;-36
2023/02/08 02:02:42;;;;;;;13.43;7.57;;;-5.30;99.90;;;;;;4966959;28;20041;-33
2023/02/08 02:05:08;;;;;;;9.87;5.73;;;-5.40;99.90;;;;;;4967930;28;20487;-33
2023/02/08 02:07:34;;;;;;;10.25;6.47;;;-5.50;99.90;;;;;;4960993;28;20051;-33
2023/02/08 02:10:26;;;;;;;9.40;6.43;;;-5.60;99.90;;;;;;4960074;28;20739;-33
2023/02/08 02:12:54;;;;;;;8.98;7.13;;;-5.70;99.90;;;;;;4964949;28;20125;-33
2023/02/08 02:15:20;;;;;;;11.10;7.93;;;-5.70;99.90;;;;;;4981642;28;20037;-32
2023/02/08 02:17:45;;;;;;;8.02;5.22;;;-5.80;99.90;;;;;;4964770;28;20411;-32
2023/02/08 02:20:14;;;;;;;11.48;6.57;;;-5.70;99.90;;;;;;4967923;28;20271;-32
2023/02/08 02:22:51;;;;;;;11.20;6.60;;;-5.70;99.90;;;;;;4961986;28;20069;-37
2023/02/08 02:25:26;;;;;;;6.73;6.03;;;-5.70;99.90;;;;;;4965873;28;20110;-32
2023/02/08 02:28:00;;;;;;;9.80;5.32;;;-5.70;99.90;;;;;;4975973;28;20039;-33
2023/02/08 02:30:29;;;;;;;9.05;4.97;;;-5.70;99.90;;;;;;4963479;28;20035;-32
2023/02/08 02:33:00;;;;;;;;;;;-5.70;99.90;;;;;;4961206;28;20651;-31
2023/02/08 02:35:43;;;;;;;12.13;5.93;;;-5.70;99.90;;;;;;4974601;28;20219;-32
2023/02/08 02:38:33;;;;;;;7.43;6.03;;;-5.70;99.90;;;;;;4970482;28;20019;-32
2023/02/08 02:44:47;;;;;;;7.50;5.90;;;-5.70;99.90;;;;;;4973315;28;20050;-33
2023/02/08 02:47:24;;;;;;;6.80;4.30;;;-5.70;99.90;;;;;;4970499;28;20088;-34
2023/02/08 02:49:55;;;;;;;11.52;7.05;;;-5.80;99.90;;;;;;4981972;28;20440;-32
2023/02/08 02:52:33;;;;;;;8.18;5.57;;;-5.90;99.90;;;;;;4970014;28;20121;-32
2023/02/08 02:55:06;;;;;;;10.10;4.90;;;-5.90;99.90;;;;;;4972300;28;20057;-32
2023/02/08 02:57:33;;;;;;;12.75;7.00;;;-6.00;99.90;;;;;;4972184;28;20034;-33
2023/02/08 03:00:05;;;;;;;8.85;6.13;;;-5.90;99.90;;;;;;4984710;28;20552;-34
2023/02/08 03:02:31;;;;;;;8.80;5.72;;;-6.00;99.90;;;;;;4959943;28;20031;-32
2023/02/08 03:04:56;;;;;;;14.05;7.93;;;-6.10;99.90;;;;;;4946001;28;20587;-34
2023/02/08 03:07:34;;;;;;;14.38;7.97;;;-6.10;99.90;;;;;;4943886;28;20042;-35
2023/02/08 03:10:07;;;;;;;10.82;6.45;;;-6.10;99.90;;;;;;4946685;28;20042;-33
2023/02/08 03:12:48;;;;;;;10.20;7.38;;;-6.10;99.90;;;;;;4944841;28;20038;-34
2023/02/08 03:15:44;;;;;;;9.20;6.03;;;-6.10;99.90;;;;;;4949040;28;20034;-36
2023/02/08 03:18:15;;;;;;;7.75;4.70;;;-6.20;99.90;;;;;;4945036;28;21591;-36
2023/02/08 03:20:49;;;;;;;10.23;7.07;;;-6.20;99.90;;;;;;4949534;28;20381;-36
2023/02/08 03:23:27;;;;;;;13.45;8.45;;;-6.20;99.90;;;;;;4955982;28;20041;-34
2023/02/08 03:25:58;;;;;;;14.38;7.53;;;-6.20;99.90;;;;;;4964455;28;20027;-35
2023/02/08 03:28:33;;;;;;;11.70;8.07;;;-6.30;99.90;;;;;;4967659;28;20046;-35
2023/02/08 03:31:18;;;;;;;10.60;6.47;;;-6.30;99.90;;;;;;4965564;28;20042;-32
2023/02/08 03:34:07;;;;;;;9.23;7.35;;;-6.30;99.90;;;;;;4965488;28;20042;-35
2023/02/08 03:36:46;;;;;;;12.95;6.43;;;-6.40;99.90;;;;;;4974570;28;20031;-33
2023/02/08 03:39:16;;;;;;;7.05;5.38;;;-6.30;99.90;;;;;;4966826;28;20133;-30
2023/02/08 03:41:46;;;;;;;9.63;6.82;;;-6.40;99.90;;;;;;4967968;28;20023;-30
2023/02/08 03:44:19;;;;;;;7.70;6.30;;;-6.40;99.90;;;;;;4973841;28;20480;-30
2023/02/08 03:46:57;;;;;;;7.18;5.90;;;-6.40;99.90;;;;;;5000224;28;20050;-31
2023/02/08 03:49:29;;;;;;;7.40;6.65;;;-6.50;99.90;;;;;;4967817;28;20034;-35
2023/02/08 03:51:58;;;;;;;8.23;6.72;;;-6.50;99.90;;;;;;4966565;28;20034;-33
2023/02/08 03:54:29;;;;;;;12.75;7.60;;;-6.50;99.90;;;;;;4962611;28;20382;-34
2023/02/08 03:57:22;;;;;;;8.18;6.95;;;-6.50;99.90;;;;;;4962818;28;20431;-36
2023/02/08 03:59:55;;;;;;;11.52;7.47;;;-6.60;99.90;;;;;;4997448;23;20391;-80
2023/02/08 04:02:25;;;;;;;10.90;6.60;;;-6.60;99.90;;;;;;4979751;28;20047;-81
2023/02/08 04:04:52;;;;;;;22.27;8.23;;;-6.60;99.90;;;;;;4984245;28;20084;-80
2023/02/08 04:07:18;;;;;;;11.25;7.95;;;-6.70;99.90;;;;;;4977443;28;20058;-81
2023/02/08 04:09:44;;;;;;;16.02;7.47;;;-6.70;99.90;;;;;;4979735;28;20540;-81
2023/02/08 04:12:10;;;;;;;8.50;6.72;;;-6.70;99.90;;;;;;4992965;28;20036;-81
2023/02/08 04:14:36;;;;;;;8.00;6.78;;;-6.70;99.90;;;;;;4984779;28;20449;-81
2023/02/08 04:17:02;;;;;;;8.27;7.30;;;-6.70;99.90;;;;;;4987910;28;20667;-81
2023/02/08 04:19:28;;;;;;;15.57;7.38;;;-6.60;99.90;;;;;;4979919;28;20036;-81
2023/02/08 04:21:54;;;;;;;11.90;6.60;;;-6.70;99.90;;;;;;4979867;28;20113;-80
2023/02/08 04:24:19;;;;;;;17.60;6.88;;;-6.70;99.90;;;;;;4983284;28;20054;-81
2023/02/08 04:26:45;;;;;;;6.45;5.63;;;-6.70;99.90;;;;;;4985244;28;20129;-81
2023/02/08 04:29:11;;;;;;;10.60;6.10;;;-6.60;99.90;;;;;;4984944;28;20035;-81
2023/02/08 04:31:37;;;;;;;11.48;6.80;;;-6.60;99.90;;;;;;4986780;28;20126;-81
2023/02/08 04:34:02;;;;;;;7.28;5.00;;;-6.60;99.90;;;;;;4982344;28;20031;-81
2023/02/08 04:36:28;;;;;;;7.55;6.90;;;-6.70;99.90;;;;;;4982320;28;20114;-81
2023/02/08 04:38:54;;;;;;;9.68;6.70;;;-6.60;99.90;;;;;;4979429;28;20491;-81
2023/02/08 04:41:19;;;;;;;7.32;5.63;;;-6.60;99.90;;;;;;4984042;28;20038;-81
2023/02/08 04:43:45;;;;;;;9.45;6.43;;;-6.60;99.90;;;;;;4986813;28;20044;-81
2023/02/08 04:46:10;;;;;;;15.90;9.02;;;-6.40;99.90;;;;;;4981933;28;20325;-81
2023/02/08 04:48:36;;;;;;;14.68;9.15;;;-6.40;99.90;;;;;;4985914;28;20471;-81
2023/02/08 04:51:02;;;;;;;14.38;7.43;;;-6.30;99.90;;;;;;4985170;28;20027;-81
2023/02/08 04:53:28;;;;;;;12.77;6.60;;;-6.20;99.90;;;;;;4981971;28;20394;-81
2023/02/08 04:55:53;;;;;;;18.80;10.25;;;-6.00;99.90;;;;;;4990231;28;20046;-81
2023/02/08 04:58:19;;;;;;;18.25;9.77;;;-5.90;99.90;;;;;;4988049;28;20065;-81
2023/02/08 05:00:45;;;;;;;16.38;9.32;;;-5.80;99.90;;;;;;4981161;28;20082;-81
2023/02/08 05:03:11;;;;;;;18.08;9.20;;;-5.70;99.90;;;;;;4963015;28;20097;-81
2023/02/08 05:05:36;;;;;;;20.38;9.93;;;-5.60;99.90;;;;;;4963205;28;20040;-81
2023/02/08 05:08:02;;;;;;;18.83;9.65;;;-5.50;99.90;;;;;;4965484;28;20514;-82
2023/02/08 05:10:28;;;;;;;20.02;11.23;;;-5.60;99.90;;;;;;4957466;28;20057;-81
2023/02/08 05:12:53;;;;;;;20.80;9.98;;;-5.60;99.90;;;;;;4963061;28;20034;-81
2023/02/08 05:15:19;;;;;;;18.42;9.75;;;-5.50;99.90;;;;;;4962602;28;21217;-81
2023/02/08 05:17:45;;;;;;;20.08;9.95;;;-5.60;99.90;;;;;;4963087;28;20046;-81
2023/02/08 05:20:11;;;;;;;19.42;10.18;;;-5.60;99.90;;;;;;4961986;28;20025;-81
2023/02/08 05:22:36;;;;;;;19.77;9.20;;;-5.50;99.90;;;;;;4958641;28;20327;-81
2023/02/08 05:25:03;;;;;;;30.15;12.50;;;-5.50;99.90;;;;;;4965553;28;20474;-82
2023/02/08 05:27:28;;;;;;;18.23;10.13;;;-5.50;99.90;;;;;;4966433;28;20859;-81
2023/02/08 05:29:54;;;;;;;21.10;10.65;;;-5.50;99.90;;;;;;4968053;28;20038;-81
2023/02/08 05:32:20;;;;;;;23.27;9.82;;;-5.50;99.90;;;;;;4965061;28;20038;-81
2023/02/08 05:34:46;;;;;;;20.95;10.80;;;-5.60;99.90;;;;;;4960010;28;20149;-81
2023/02/08 05:37:12;;;;;;;22.40;11.18;;;-5.70;99.90;;;;;;4966069;28;20041;-81
2023/02/08 05:39:39;;;;;;;21.33;11.15;;;-5.70;99.90;;;;;;4963011;28;20129;-81
2023/02/08 05:42:05;;;;;;;19.85;10.20;;;-5.70;99.90;;;;;;4979697;28;20097;-82
2023/02/08 05:44:31;;;;;;;17.13;8.52;;;-5.50;99.90;;;;;;4982856;28;20125;-81
2023/02/08 05:46:56;;;;;;;20.52;9.65;;;-5.50;99.90;;;;;;4979912;28;20114;-81
2023/02/08 05:49:22;;;;;;;21.02;11.02;;;-5.50;99.90;;;;;;4978740;28;20164;-81
2023/02/08 05:51:49;;;;;;;14.80;8.95;;;-5.50;99.90;;;;;;4977530;28;20046;-81
2023/02/08 05:54:15;;;;;;;16.75;8.30;;;-5.80;99.90;;;;;;4978310;28;20036;-81
2023/02/08 05:56:40;;;;;;;19.80;11.13;;;-6.10;99.90;;;;;;4979596;28;20042;-81
2023/02/08 05:59:06;;;;;;;17.15;9.35;;;-6.30;99.90;;;;;;4975709;28;20038;-81
2023/02/08 06:01:31;;;;;;;18.45;8.43;;;-6.40;99.90;;;;;;4980402;28;20501;-81
2023/02/08 06:03:58;;;;;;;17.70;10.68;;;-6.50;99.90;;;;;;4981615;28;20027;-81
2023/02/08 06:06:24;;;;;;;18.55;8.35;;;-6.50;99.90;;;;;;4975867;28;20173;-81
2023/02/08 06:08:50;;;;;;;11.18;7.35;;;-6.60;99.90;;;;;;4982011;28;20120;-81
2023/02/08 06:11:15;;;;;;;20.80;9.90;;;-6.60;99.90;;;;;;4985804;28;20089;-81
2023/02/08 06:13:41;;;;;;;19.98;11.20;;;-6.70;99.90;;;;;;4984792;28;20045;-80
2023/02/08 06:16:07;;;;;;;10.65;7.15;;;-6.70;99.90;;;;;;4983696;28;20149;-81
2023/02/08 06:18:33;;;;;;;13.32;6.97;;;-6.70;99.90;;;;;;4982589;28;20033;-81
2023/02/08 06:20:58;;;;;;;17.95;9.00;;;-6.70;99.90;;;;;;4988588;28;20034;-81
2023/02/08 06:23:24;;;;;;;17.25;9.38;;;-6.80;99.90;;;;;;4912885;28;20423;-81
2023/02/08 06:25:50;;;;;;;13.10;8.90;;;-6.80;99.90;;;;;;4983570;28;20062;-81
2023/02/08 06:28:16;;;;;;;27.27;12.05;;;-6.90;99.90;;;;;;4981966;28;20029;-81
2023/02/08 06:30:42;;;;;;;20.42;11.10;;;-6.90;99.90;;;;;;4983596;28;20061;-81
2023/02/08 06:33:07;;;;;;;13.85;9.85;;;-6.90;99.90;;;;;;4991468;28;20030;-81
2023/02/08 06:35:33;;;;;;;16.58;9.82;;;-6.90;99.90;;;;;;4984664;28;20053;-80
2023/02/08 06:37:58;;;;;;;22.38;9.07;;;-7.00;99.90;;;;;;4985244;28;20040;-81
2023/02/08 06:40:24;;;;;;;14.30;8.48;;;-7.10;99.90;;;;;;4988232;28;20615;-81
2023/02/08 06:42:50;;;;;;;18.33;9.35;;;-7.10;99.90;;;;;;4982935;28;20049;-81
2023/02/08 06:45:16;;;;;;;9.02;6.55;;;-7.10;99.90;;;;;;4980249;28;20113;-80
2023/02/08 06:47:42;;;;;;;12.77;9.07;;;-7.20;99.90;;;;;;4982055;28;20508;-80
2023/02/08 06:50:09;;;;;;;17.52;9.15;;;-7.20;99.90;;;;;;4982580;28;20042;-81
2023/02/08 06:52:34;;;;;;;18.00;7.55;;;-7.20;99.90;;;;;;4984630;28;20054;-81
2023/02/08 06:55:00;;;;;;;13.48;8.63;;;-7.20;99.90;;;;;;4981527;28;20057;-81
2023/02/08 06:57:25;;;;;;;20.63;10.52;;;-7.20;99.90;;;;;;4993845;28;20089;-81
2023/02/08 06:59:51;;;;;;;22.70;10.75;;;-7.10;99.90;;;;;;4987716;28;20058;-81
2023/02/08 07:02:19;;;;;;;27.50;13.93;;;-7.00;99.90;;;;;;4984313;28;20093;-81
2023/02/08 07:04:44;;;;;;;31.88;12.88;;;-6.90;99.90;;;;;;4987866;28;20022;-81
2023/02/08 07:07:11;;;;;;;25.75;14.82;;;-6.70;99.90;;;;;;4982209;28;20039;-80
2023/02/08 07:09:37;;;;;;;32.65;15.98;;;-6.50;99.90;;;;;;4980654;28;20144;-82
2023/02/08 07:12:04;;;;;;;22.58;11.88;;;-6.40;99.90;;;;;;4986043;28;21643;-81
2023/02/08 07:14:35;;;;;;;27.02;12.50;;;-6.40;99.90;;;;;;4980395;28;20057;-81
2023/02/08 07:17:01;;;;;;;31.77;15.98;;;-6.50;99.90;;;;;;4977870;28;20049;-81
2023/02/08 07:19:27;;;;;;;25.00;11.95;;;-6.40;99.90;;;;;;4981501;28;20121;-80
2023/02/08 07:21:53;;;;;;;24.02;13.02;;;-6.40;99.90;;;;;;4987254;28;20038;-80
2023/02/08 07:24:19;;;;;;;22.23;12.25;;;-6.30;99.90;;;;;;4985746;28;20045;-81
2023/02/08 07:26:44;;;;;;;23.92;12.77;;;-6.40;99.90;;;;;;4987592;28;20046;-81
2023/02/08 07:29:10;;;;;;;16.05;8.45;;;-6.40;99.90;;;;;;4985425;28;20450;-80
2023/02/08 07:31:35;;;;;;;17.92;9.75;;;-6.50;99.90;;;;;;4986964;28;20038;-81
2023/02/08 07:34:01;;;;;;;19.27;9.13;;;-6.40;99.90;;;;;;4990575;28;20489;-81
2023/02/08 07:36:27;;;;;;;24.40;12.90;;;-6.40;99.90;;;;;;4986109;28;20066;-81
2023/02/08 07:38:52;;;;;;;27.67;12.90;;;-6.30;99.90;;;;;;4984113;28;20097;-80
2023/02/08 07:41:18;;;;;;;19.05;11.00;;;-6.20;99.90;;;;;;4987312;28;20040;-81
2023/02/08 07:43:43;;;;;;;23.52;12.73;;;-6.20;99.90;;;;;;4987860;28;20061;-81
2023/02/08 07:46:12;;;;;;;26.17;13.63;;;-6.10;99.90;;;;;;4989006;28;20101;-81
2023/02/08 07:48:38;;;;;;;26.27;13.43;;;-5.90;99.90;;;;;;4985770;28;20937;-81
2023/02/08 07:51:03;;;;;;;22.48;13.63;;;-5.80;99.90;;;;;;4986318;28;20109;-81
2023/02/08 07:53:29;;;;;;;19.33;11.73;;;-5.70;99.90;;;;;;4986876;28;20117;-81
2023/02/08 07:55:55;;;;;;;34.10;15.23;;;-5.60;99.90;;;;;;4986482;28;20046;-81
2023/02/08 07:58:21;;;;;;;24.30;12.93;;;-5.50;99.90;;;;;;4986977;28;20133;-82
2023/02/08 08:00:47;;;;;;;25.90;12.98;;;-5.30;99.90;;;;;;4988833;28;20478;-81
2023/02/08 08:03:12;;;;;;;29.60;12.73;;;-5.30;99.90;;;;;;4989232;28;20068;-81
2023/02/08 08:05:41;;;;;;;27.60;15.25;;;-5.10;99.90;;;;;;4997574;28;20097;-81
2023/02/08 08:08:09;;;;;;;29.88;15.52;;;-5.00;99.90;;;;;;4985341;28;20030;-82
2023/02/08 08:10:34;;;;;;;31.63;15.40;;;-4.80;99.90;;;;;;4981641;28;20038;-81
2023/02/08 08:13:00;;;;;;;22.65;12.55;;;-4.70;99.90;;;;;;4988969;28;20026;-81
2023/02/08 08:15:26;;;;;;;29.30;13.63;;;-4.60;99.90;;;;;;4982772;28;20038;-81
2023/02/08 08:17:52;;;;;;;27.98;16.45;;;-4.50;99.90;;;;;;4984690;28;20045;-81
2023/02/08 08:20:18;;;;;;;32.17;16.85;;;-4.50;99.90;;;;;;4984416;28;20042;-81
2023/02/08 08:22:44;;;;;;;21.15;11.85;;;-4.40;99.90;;;;;;4983796;28;20721;-82
2023/02/08 08:25:09;;;;;;;23.35;12.95;;;-4.40;99.90;;;;;;4988493;28;20037;-82
2023/02/08 08:27:35;;;;;;;21.73;11.80;;;-4.30;99.90;;;;;;4983037;28;20030;-82
2023/02/08 08:30:01;;;;;;;28.30;16.10;;;-4.20;99.90;;;;;;4986302;28;20030;-82
2023/02/08 08:32:27;;;;;;;29.73;13.13;;;-4.10;99.90;;;;;;4987047;28;20069;-82
2023/02/08 08:34:52;;;;;;;31.02;14.52;;;-4.00;99.90;;;;;;4982916;28;20449;-82
2023/02/08 08:37:18;;;;;;;26.13;14.13;;;-3.90;99.90;;;;;;4986644;28;20042;-82
2023/02/08 08:39:43;;;;;;;29.40;13.95;;;-3.80;99.90;;;;;;4984703;28;20041;-82
2023/02/08 08:42:09;;;;;;;27.45;13.45;;;-3.70;99.90;;;;;;4988010;28;20041;-81
2023/02/08 08:44:35;;;;;;;22.25;12.27;;;-3.70;99.90;;;;;;4987728;28;20038;-82
2023/02/08 08:47:00;;;;;;;32.03;13.45;;;-3.50;99.90;;;;;;4983319;28;20026;-82
2023/02/08 08:49:27;;;;;;;27.50;14.50;;;-3.30;99.90;;;;;;4983489;28;20133;-82
2023/02/08 08:51:54;;;;;;;26.95;14.63;;;-3.30;99.90;;;;;;4989545;28;20027;-81
2023/02/08 08:54:20;;;;;;;27.05;12.98;;;-3.30;99.90;;;;;;4986747;28;20502;-82
2023/02/08 08:56:46;;;;;;;27.05;15.15;;;-3.20;99.90;;;;;;4987115;28;20068;-82
2023/02/08 08:59:12;;;;;;;20.23;10.95;;;-3.10;99.90;;;;;;4989746;28;20070;-82
2023/02/08 09:01:39;;;;;;;18.38;10.95;;;-3.00;99.90;;;;;;4988794;28;20045;-82
2023/02/08 09:04:05;;;;;;;17.45;10.15;;;-2.90;99.90;;;;;;4985491;28;20060;-82
2023/02/08 09:06:30;;;;;;;17.30;9.80;;;-2.90;99.90;;;;;;4984398;28;20057;-83
2023/02/08 09:08:56;;;;;;;19.90;10.98;;;-2.90;99.90;;;;;;4983548;28;20034;-82
2023/02/08 09:11:21;;;;;;;22.15;10.65;;;-2.80;99.90;;;;;;4987432;28;20072;-83
2023/02/08 09:13:51;;;;;;;20.73;10.05;;;-2.80;99.90;;;;;;4984589;28;20030;-82
2023/02/08 09:16:18;;;;;;;16.23;9.55;;;-2.70;99.90;;;;;;4985963;28;20407;-82
2023/02/08 09:18:44;;;;;;;22.52;12.63;;;-2.60;99.90;;;;;;4982944;28;20041;-82
2023/02/08 09:21:16;;;;;;;31.88;15.48;;;-2.50;99.90;;;;;;4986752;28;20042;-82
2023/02/08 09:23:42;;;;;;;28.60;15.43;;;-2.40;99.90;;;;;;4983631;28;20034;-81
2023/02/08 09:26:11;;;;;;;16.30;8.88;;;-2.50;99.90;;;;;;4987028;28;20128;-82
2023/02/08 09:28:37;;;;;;;18.05;8.75;;;-2.40;99.90;;;;;;4985793;28;20681;-80
2023/02/08 09:31:11;;;;;;;13.68;7.93;;;-2.40;99.90;;;;;;4981939;28;20050;-80
2023/02/08 09:33:37;;;;;;;17.60;9.90;;;-2.30;99.90;;;;;;4988887;28;20038;-79
2023/02/08 09:36:03;;;;;;;16.17;8.85;;;-2.30;99.90;;;;;;4984556;28;20054;-80
2023/02/08 09:38:29;;;;;;;22.58;13.75;;;-2.20;99.90;;;;;;4986015;28;20133;-80
2023/02/08 09:41:13;;;;;;;22.33;11.82;;;-2.10;99.90;;;;;;4983392;28;20037;-80
2023/02/08 09:43:59;;;;;;;23.23;12.82;;;-2.20;99.90;;;;;;4979559;28;20061;-80
2023/02/08 09:46:28;;;;;;;20.58;7.95;;;-2.10;99.90;;;;;;4979511;28;20477;-80
2023/02/08 09:48:57;;;;;;;22.35;11.45;;;-2.00;99.90;;;;;;4985283;28;20030;-81
2023/02/08 09:51:36;;;;;;;15.75;9.48;;;-2.00;99.90;;;;;;4981295;28;20027;-79
2023/02/08 09:54:11;;;;;;;20.20;10.35;;;-2.00;99.90;;;;;;4983645;28;20383;-81
2023/02/08 09:56:40;;;;;;;19.08;11.13;;;-1.90;99.90;;;;;;4986598;28;20097;-81
2023/02/08 09:59:12;;;;;;;24.60;13.23;;;-1.80;99.90;;;;;;4982837;28;20034;-80
2023/02/08 10:01:37;;;;;;;22.73;11.02;;;-1.80;99.90;;;;;;4982139;28;20103;-81
2023/02/08 10:04:27;;;;;;;24.50;12.48;;;-1.80;99.90;;;;;;4984491;28;20054;-83
2023/02/08 10:06:53;;;;;;;18.52;10.75;;;-1.70;99.90;;;;;;4981011;28;20038;-83
2023/02/08 10:09:24;;;;;;;22.80;11.68;;;-1.60;99.90;;;;;;4983244;28;20038;-84
2023/02/08 10:12:01;;;;;;;24.90;11.88;;;-1.60;99.90;;;;;;4987227;28;20084;-85
2023/02/08 10:14:40;;;;;;;18.23;10.35;;;-1.60;99.90;;;;;;4986370;28;20030;-85
2023/02/08 10:17:27;;;;;;;26.92;11.38;;;-1.60;99.90;;;;;;4983256;28;20058;-82
2023/02/08 10:20:00;;;;;;;21.88;11.45;;;-1.60;99.90;;;;;;4982198;28;20665;-83
2023/02/08 10:22:55;;;;;;;22.77;10.40;;;-1.40;99.90;;;;;;4984790;28;20034;-83
2023/02/08 10:25:30;;;;;;;15.32;9.18;;;-1.50;99.90;;;;;;4980326;28;20446;-83
2023/02/08 10:27:55;;;;;;;23.15;12.68;;;-1.40;99.90;;;;;;4977587;28;20034;-83
2023/02/08 10:30:21;;;;;;;15.60;8.88;;;-1.30;99.90;;;;;;4978275;28;20034;-83
2023/02/08 10:32:56;;;;;;;25.15;12.38;;;-1.30;99.90;;;;;;4981130;28;20105;-83
2023/02/08 10:35:36;;;;;;;23.35;11.85;;;-1.20;99.90;;;;;;4975349;28;20026;-83
2023/02/08 10:38:25;;;;;;;19.27;10.30;;;-1.10;99.90;;;;;;4979539;28;20074;-82
2023/02/08 10:40:58;;;;;;;18.08;9.38;;;-1.20;99.90;;;;;;4982471;28;20065;-83
2023/02/08 10:43:50;;;;;;;23.70;10.48;;;-1.20;99.90;;;;;;4980990;28;20031;-83
2023/02/08 10:46:31;;;;;;;15.95;8.85;;;-1.20;99.90;;;;;;4981026;28;20046;-83
2023/02/08 10:49:29;;;;;;;14.68;8.73;;;-1.20;99.90;;;;;;4985618;28;20034;-82
2023/02/08 10:51:54;;;;;;;22.70;10.43;;;-1.20;99.90;;;;;;4981154;28;20034;-83
2023/02/08 10:54:20;;;;;;;23.58;10.90;;;-1.00;99.90;;;;;;4987585;28;20518;-83
2023/02/08 10:56:48;;;;;;;23.35;11.65;;;-1.10;99.90;;;;;;4989163;28;20041;-83
2023/02/08 10:59:14;;;;;;;;;;;-1.10;99.90;;;;;;4985753;28;20042;-83
2023/02/08 11:01:40;;;;;;;25.35;13.55;;;-1.10;99.90;;;;;;4987135;28;19924;-83
2023/02/08 11:04:10;;;;;;;25.73;12.07;;;-1.10;99.90;;;;;;4984593;28;20041;-83
2023/02/08 11:06:36;;;;;;;24.48;11.93;;;-1.10;99.90;;;;;;4988000;28;20026;-83
2023/02/08 11:09:02;;;;;;;18.83;10.05;;;-1.00;99.90;;;;;;4985410;28;20061;-83
2023/02/08 11:11:35;;;;;;;19.30;9.70;;;-1.00;99.90;;;;;;4986798;28;20475;-83
2023/02/08 11:14:16;;;;;;;21.92;9.85;;;-1.00;99.90;;;;;;4989335;28;20035;-83
2023/02/08 11:16:49;;;;;;;19.05;10.90;;;-1.00;99.90;;;;;;4989425;28;20042;-83
2023/02/08 11:19:33;;;;;;;20.13;10.52;;;-1.00;99.90;;;;;;4991340;28;20403;-83
2023/02/08 11:22:00;;;;;;;20.02;9.63;;;-0.90;99.90;;;;;;4989576;28;20058;-83
2023/02/08 11:24:34;;;;;;;30.63;13.65;;;-0.90;99.90;;;;;;4988515;28;20246;-83
2023/02/08 11:27:01;;;;;;;18.00;9.18;;;-1.00;99.90;;;;;;4986292;28;20054;-83
2023/02/08 11:29:30;;;;;;;20.35;11.38;;;-1.00;99.90;;;;;;4988115;28;20034;-83
2023/02/08 11:32:14;;;;;;;20.92;11.55;;;-0.90;99.90;;;;;;4984088;28;20133;-82
2023/02/08 11:34:39;;;;;;;21.80;11.77;;;-0.90;99.90;;;;;;4988582;28;20032;-83
2023/02/08 11:37:22;;;;;;;23.77;11.00;;;-0.90;99.90;;;;;;4989218;28;20113;-83
2023/02/08 11:39:53;;;;;;;14.10;8.75;;;-0.90;99.90;;;;;;4986046;28;20109;-83
2023/02/08 11:42:24;;;;;;;19.35;11.27;;;-0.80;99.90;;;;;;4986568;28;20363;-82
2023/02/08 11:44:51;;;;;;;25.45;11.88;;;-0.70;99.90;;;;;;4986130;28;20038;-82
2023/02/08 11:47:24;;;;;;;19.00;10.32;;;-0.70;99.90;;;;;;4987218;28;20034;-82
2023/02/08 11:49:55;;;;;;;23.75;13.00;;;-0.70;99.90;;;;;;4983616;28;20029;-82
2023/02/08 11:52:26;;;;;;;22.42;11.18;;;-0.60;99.90;;;;;;4985854;28;20479;-82
2023/02/08 11:54:53;;;;;;;17.45;10.68;;;-0.70;99.90;;;;;;4988715;28;20485;-80
2023/02/08 11:57:22;;;;;;;23.23;13.60;;;-0.60;99.90;;;;;;4985527;28;20133;-80
2023/02/08 11:59:49;;;;;;;;;;;-0.50;99.90;;;;;;4986018;28;20054;-81
2023/02/08 12:02:28;;;;;;;19.90;10.15;;;-0.50;99.90;;;;;;4988749;28;20013;-81
2023/02/08 12:04:54;;;;;;;13.93;8.35;;;-0.50;99.90;;;;;;4987587;28;20046;-81
2023/02/08 12:07:30;;;;;;;21.20;9.65;;;-0.40;99.90;;;;;;4989466;28;20030;-82
2023/02/08 12:10:38;;;;;;;17.55;7.53;;;-0.30;99.90;;;;;;4980250;28;20030;-80
2023/02/08 12:13:16;;;;;;;18.93;11.37;;;-0.30;99.90;;;;;;4981234;28;20041;-80
2023/02/08 12:16:02;;;;;;;21.33;11.55;;;-0.30;99.90;;;;;;4984476;28;20030;-80
2023/02/08 12:19:09;;;;;;;18.15;10.00;;;-0.30;99.90;;;;;;4988453;28;20039;-80
2023/02/08 12:21:44;;;;;;;20.77;9.18;;;-0.20;99.90;;;;;;4985809;28;20042;-81
2023/02/08 12:24:18;;;;;;;15.23;8.80;;;-0.10;99.90;;;;;;4988290;28;20034;-80
2023/02/08 12:27:00;;;;;;;17.65;10.35;;;-0.10;99.90;;;;;;4984296;28;20580;-80
2023/02/08 12:30:03;;;;;;;14.40;8.32;;;0.00;99.90;;;;;;4983679;28;20671;-80
2023/02/08 12:32:41;;;;;;;18.40;9.48;;;-0.10;99.90;;;;;;4986849;28;20558;-80
2023/02/08 12:35:16;;;;;;;14.75;8.45;;;0.10;99.90;;;;;;4984390;28;20114;-80
2023/02/08 12:40:51;;;;;;;9.68;6.38;;;0.00;99.90;;;;;;4987116;28;20045;-80
2023/02/08 12:43:42;;;;;;;15.70;9.00;;;0.20;99.90;;;;;;4985405;28;20035;-80
2023/02/08 12:46:13;;;;;;;9.75;6.53;;;0.10;99.90;;;;;;4983579;28;20453;-80
2023/02/08 12:48:58;;;;;;;17.75;8.75;;;0.10;99.90;;;;;;4986005;28;20058;-80
2023/02/08 12:51:55;;;;;;;22.73;12.43;;;0.20;99.90;;;;;;4984714;28;20034;-80
2023/02/08 12:54:32;;;;;;;19.10;11.93;;;0.20;99.10;;;;;;4980983;28;20113;-80
2023/02/08 12:56:58;;;;;;;13.45;7.53;;;0.20;99.90;;;;;;4981183;28;20058;-80